createdAt,value
2022-11-10T00:00:10.908Z,21.00
2022-11-10T00:02:34.507Z,21.20
2022-11-10T00:04:57.970Z,19.60
2022-11-10T00:07:25.992Z,20.10
2022-11-10T00:09:49.062Z,19.30
2022-11-10T00:12:12.248Z,19.30
2022-11-10T00:14:38.451Z,18.60
2022-11-10T00:17:01.589Z,18.00
2022-11-10T00:19:24.745Z,19.80
2022-11-10T00:21:48.727Z,20.40
2022-11-10T00:24:13.261Z,19.60
2022-11-10T00:26:36.331Z,20.00
2022-11-10T00:28:59.528Z,20.70
2022-11-10T00:31:22.827Z,19.90
2022-11-10T00:33:46.215Z,22.50
2022-11-10T00:36:10.175Z,21.00
2022-11-10T00:38:37.058Z,21.40
2022-11-10T00:41:01.152Z,20.70
2022-11-10T00:43:28.768Z,20.90
2022-11-10T00:45:53.780Z,22.00
2022-11-10T00:48:17.046Z,20.30
2022-11-10T00:50:40.720Z,21.70
2022-11-10T00:53:04.018Z,23.40
2022-11-10T00:55:28.352Z,19.70
2022-11-10T00:57:51.381Z,22.70
2022-11-10T01:00:15.062Z,22.40
2022-11-10T01:02:40.965Z,21.80
2022-11-10T01:05:04.597Z,21.10
2022-11-10T01:07:27.773Z,23.40
2022-11-10T01:09:51.116Z,23.50
2022-11-10T01:12:16.933Z,19.50
2022-11-10T01:14:40.411Z,23.10
2022-11-10T01:17:04.290Z,20.80
2022-11-10T01:19:32.670Z,24.20
2022-11-10T01:21:56.600Z,23.10
2022-11-10T01:24:22.889Z,23.20
2022-11-10T01:26:49.397Z,23.50
2022-11-10T01:29:12.748Z,24.50
2022-11-10T01:31:35.978Z,21.20
2022-11-10T01:34:00.230Z,23.40
2022-11-10T01:36:26.645Z,19.80
2022-11-10T01:38:50.080Z,23.10
2022-11-10T01:41:16.487Z,21.10
2022-11-10T01:43:39.747Z,22.80
2022-11-10T01:46:04.873Z,17.70
2022-11-10T01:48:32.798Z,20.00
2022-11-10T01:50:59.548Z,17.80
2022-11-10T01:53:27.657Z,18.10
2022-11-10T01:55:51.535Z,17.90
2022-11-10T01:58:19.448Z,17.50
2022-11-10T02:00:46.207Z,15.50
2022-11-10T02:03:14.970Z,17.20
2022-11-10T02:05:39.358Z,15.40
2022-11-10T02:08:05.083Z,16.20
2022-11-10T02:10:28.182Z,16.90
2022-11-10T02:12:51.969Z,15.20
2022-11-10T02:15:17.477Z,15.40
2022-11-10T02:17:41.221Z,15.80
2022-11-10T02:20:08.454Z,16.90
2022-11-10T02:22:32.305Z,18.50
2022-11-10T02:24:58.214Z,16.70
2022-11-10T02:27:21.807Z,16.90
2022-11-10T02:29:45.307Z,19.10
2022-11-10T02:32:08.589Z,16.40
2022-11-10T02:34:31.975Z,16.00
2022-11-10T02:36:55.016Z,15.70
2022-11-10T02:39:19.285Z,15.90
2022-11-10T02:41:42.520Z,17.20
2022-11-10T02:44:07.444Z,17.10
2022-11-10T02:46:31.120Z,16.80
2022-11-10T02:48:57.315Z,17.40
2022-11-10T02:51:21.775Z,16.40
2022-11-10T02:53:45.151Z,16.60
2022-11-10T02:56:09.182Z,16.20
2022-11-10T02:58:32.332Z,16.70
2022-11-10T03:00:55.608Z,16.90
2022-11-10T03:03:18.976Z,18.20
2022-11-10T03:05:42.802Z,16.80
2022-11-10T03:08:06.401Z,16.10
2022-11-10T03:10:30.349Z,17.20
2022-11-10T03:12:58.271Z,18.80
2022-11-10T03:15:21.516Z,17.60
2022-11-10T03:17:45.311Z,15.40
2022-11-10T03:20:10.084Z,16.70
2022-11-10T03:22:36.187Z,14.90
2022-11-10T03:24:59.985Z,14.60
2022-11-10T03:27:23.647Z,17.00
2022-11-10T03:29:46.767Z,15.30
2022-11-10T03:32:10.056Z,17.30
2022-11-10T03:34:36.418Z,16.20
2022-11-10T03:37:02.748Z,15.00
2022-11-10T03:39:26.126Z,15.50
2022-11-10T03:41:49.949Z,15.70
2022-11-10T03:44:12.948Z,14.80
2022-11-10T03:46:37.132Z,14.20
2022-11-10T03:49:00.732Z,14.50
2022-11-10T03:51:25.020Z,13.40
2022-11-10T03:53:48.043Z,12.70
2022-11-10T03:56:14.062Z,13.10
2022-11-10T03:58:38.957Z,13.90
2022-11-10T04:01:05.159Z,14.30
2022-11-10T04:03:28.446Z,12.10
2022-11-10T04:05:51.573Z,12.90
2022-11-10T04:08:19.438Z,12.60
2022-11-10T04:10:42.943Z,12.30
2022-11-10T04:13:06.339Z,12.90
2022-11-10T04:15:32.259Z,13.00
2022-11-10T04:17:55.922Z,12.30
2022-11-10T04:20:19.242Z,12.60
2022-11-10T04:22:42.523Z,11.90
2022-11-10T04:25:06.538Z,12.30
2022-11-10T04:27:29.450Z,13.20
2022-11-10T04:29:52.846Z,12.70
2022-11-10T04:32:16.032Z,12.60
2022-11-10T04:34:42.355Z,13.50
2022-11-10T04:37:08.232Z,13.50
2022-11-10T04:39:31.565Z,13.80
2022-11-10T04:41:59.758Z,12.90
2022-11-10T04:44:26.005Z,12.70
2022-11-10T04:46:49.073Z,12.90
2022-11-10T04:49:13.093Z,13.20
2022-11-10T04:51:38.064Z,12.40
2022-11-10T04:54:02.086Z,13.00
2022-11-10T04:56:26.761Z,13.00
2022-11-10T04:58:52.245Z,13.40
2022-11-10T05:01:18.249Z,12.90
2022-11-10T05:03:41.793Z,15.00
2022-11-10T05:06:05.660Z,13.80
2022-11-10T05:08:28.707Z,14.50
2022-11-10T05:10:51.887Z,19.60
2022-11-10T05:13:15.413Z,19.30
2022-11-10T05:15:38.511Z,19.40
2022-11-10T05:18:01.787Z,18.70
2022-11-10T05:20:28.165Z,20.50
2022-11-10T05:22:52.649Z,20.20
2022-11-10T05:25:15.874Z,21.40
2022-11-10T05:27:39.343Z,20.90
2022-11-10T05:30:02.569Z,23.40
2022-11-10T05:32:25.526Z,23.70
2022-11-10T05:34:49.752Z,21.20
2022-11-10T05:37:13.516Z,20.70
2022-11-10T05:39:36.685Z,23.00
2022-11-10T05:41:59.633Z,22.40
2022-11-10T05:44:22.576Z,21.40
2022-11-10T05:46:45.550Z,20.00
2022-11-10T05:49:11.397Z,21.10
2022-11-10T05:51:34.982Z,18.70
2022-11-10T05:53:58.666Z,18.60
2022-11-10T05:56:27.988Z,19.60
2022-11-10T05:58:51.053Z,16.70
2022-11-10T06:01:17.159Z,16.60
2022-11-10T06:03:41.210Z,17.20
2022-11-10T06:06:04.891Z,16.90
2022-11-10T06:08:28.556Z,18.10
2022-11-10T06:10:52.149Z,17.20
2022-11-10T06:13:20.837Z,16.20
2022-11-10T06:15:50.027Z,14.40
2022-11-10T06:18:15.101Z,23.80
2022-11-10T06:20:38.425Z,16.90
2022-11-10T06:23:03.559Z,16.70
2022-11-10T06:25:27.515Z,16.50
2022-11-10T06:27:50.863Z,19.00
2022-11-10T06:30:20.364Z,16.90
2022-11-10T06:32:45.413Z,17.50
2022-11-10T06:35:09.485Z,14.70
2022-11-10T06:37:35.506Z,11.60
2022-11-10T06:39:59.072Z,11.50
2022-11-10T06:42:22.293Z,11.70
2022-11-10T06:44:45.790Z,11.10
2022-11-10T06:47:09.501Z,11.20
2022-11-10T06:49:32.521Z,12.70
2022-11-10T06:51:55.655Z,10.60
2022-11-10T06:54:19.387Z,10.70
2022-11-10T06:56:42.548Z,11.10
2022-11-10T06:59:06.327Z,8.90
2022-11-10T07:01:32.688Z,9.40
2022-11-10T07:04:18.206Z,8.60
2022-11-10T07:06:39.177Z,8.40
2022-11-10T07:09:02.133Z,10.30
2022-11-10T07:11:25.361Z,7.50
2022-11-10T07:13:48.257Z,9.50
2022-11-10T07:16:11.833Z,8.90
2022-11-10T07:18:35.371Z,7.40
2022-11-10T07:20:58.555Z,7.70
2022-11-10T07:23:21.822Z,11.60
2022-11-10T07:25:45.117Z,9.50
2022-11-10T07:28:09.799Z,9.10
2022-11-10T07:30:34.852Z,9.50
2022-11-10T07:33:03.225Z,7.90
2022-11-10T07:35:26.623Z,11.10
2022-11-10T07:37:49.744Z,9.10
2022-11-10T07:40:13.954Z,9.40
2022-11-10T07:42:41.850Z,10.10
2022-11-10T07:45:05.248Z,9.80
2022-11-10T07:47:28.720Z,9.00
2022-11-10T07:49:51.843Z,8.70
2022-11-10T07:52:15.186Z,8.80
2022-11-10T07:54:38.231Z,8.70
2022-11-10T07:57:01.733Z,8.30
2022-11-10T07:59:24.965Z,10.40
2022-11-10T08:01:48.495Z,10.30
2022-11-10T08:04:12.101Z,9.50
2022-11-10T08:06:36.438Z,9.30
2022-11-10T08:09:00.300Z,11.80
2022-11-10T08:11:23.697Z,10.40
2022-11-10T08:13:47.158Z,8.30
2022-11-10T08:16:10.684Z,8.00
2022-11-10T08:18:35.554Z,9.30
2022-11-10T08:21:01.918Z,8.90
2022-11-10T08:23:24.984Z,10.10
2022-11-10T08:25:48.565Z,7.20
2022-11-10T08:28:14.866Z,11.10
2022-11-10T08:30:40.400Z,7.50
2022-11-10T08:33:05.232Z,9.00
2022-11-10T08:35:30.159Z,9.50
2022-11-10T08:37:53.385Z,8.60
2022-11-10T08:40:17.197Z,7.60
2022-11-10T08:42:40.172Z,6.70
2022-11-10T08:45:03.498Z,7.80
2022-11-10T08:47:26.835Z,8.20
2022-11-10T08:49:49.877Z,6.70
2022-11-10T08:52:13.198Z,6.60
2022-11-10T08:54:36.489Z,7.60
2022-11-10T08:56:59.464Z,9.20
2022-11-10T08:59:22.960Z,10.00
2022-11-10T09:01:46.053Z,6.90
2022-11-10T09:04:09.148Z,8.90
2022-11-10T09:06:32.380Z,8.80
2022-11-10T09:08:55.831Z,6.90
2022-11-10T09:11:18.729Z,8.80
2022-11-10T09:13:42.060Z,6.10
2022-11-10T09:16:06.781Z,6.70
2022-11-10T09:18:30.091Z,8.20
2022-11-10T09:20:53.441Z,6.10
2022-11-10T09:23:18.894Z,6.80
2022-11-10T09:25:43.104Z,7.30
2022-11-10T09:28:06.688Z,6.80
2022-11-10T09:30:31.605Z,5.90
2022-11-10T09:32:57.433Z,6.00
2022-11-10T09:35:20.711Z,6.80
2022-11-10T09:37:44.003Z,6.70
2022-11-10T09:40:15.096Z,6.30
2022-11-10T09:42:41.435Z,6.20
2022-11-10T09:45:17.644Z,5.90
2022-11-10T09:47:57.166Z,6.60
2022-11-10T09:50:28.028Z,7.40
2022-11-10T09:52:52.961Z,6.50
2022-11-10T09:55:28.409Z,7.30
2022-11-10T09:57:56.335Z,6.80
2022-11-10T10:00:20.246Z,6.50
2022-11-10T10:02:50.764Z,6.30
2022-11-10T10:05:46.409Z,6.00
2022-11-10T10:08:19.535Z,6.10
2022-11-10T10:10:45.101Z,6.20
2022-11-10T10:13:27.626Z,6.50
2022-11-10T10:16:01.326Z,6.10
2022-11-10T10:18:34.981Z,6.50
2022-11-10T10:21:15.843Z,7.20
2022-11-10T10:24:19.795Z,7.30
2022-11-10T10:26:33.953Z,6.70
2022-11-10T10:29:01.669Z,6.30
2022-11-10T10:31:26.580Z,7.00
2022-11-10T10:33:50.998Z,7.40
2022-11-10T10:36:18.752Z,6.20
2022-11-10T10:38:43.739Z,7.50
2022-11-10T10:41:19.598Z,7.10
2022-11-10T10:43:50.095Z,7.20
2022-11-10T10:46:15.041Z,8.30
2022-11-10T10:48:38.150Z,6.10
2022-11-10T10:51:01.042Z,6.60
2022-11-10T10:53:25.292Z,8.10
2022-11-10T10:55:53.535Z,6.40
2022-11-10T10:58:26.235Z,7.20
2022-11-10T11:00:52.604Z,7.00
2022-11-10T11:03:27.012Z,6.00
2022-11-10T11:06:04.856Z,6.20
2022-11-10T11:08:28.297Z,8.50
2022-11-10T11:10:51.351Z,7.70
2022-11-10T11:13:23.848Z,6.80
2022-11-10T11:15:58.959Z,8.50
2022-11-10T11:18:29.598Z,6.00
2022-11-10T11:21:01.226Z,6.80
2022-11-10T11:23:41.520Z,7.20
2022-11-10T11:26:12.651Z,7.20
2022-11-10T11:28:45.973Z,7.80
2022-11-10T11:31:15.367Z,6.80
2022-11-10T11:33:46.090Z,7.00
2022-11-10T11:36:24.141Z,7.90
2022-11-10T11:38:58.761Z,6.60
2022-11-10T11:41:33.448Z,7.10
2022-11-10T11:44:26.450Z,7.00
2022-11-10T11:46:56.006Z,7.20
2022-11-10T11:49:46.039Z,7.90
2022-11-10T11:52:21.237Z,8.70
2022-11-10T11:54:57.392Z,9.20
2022-11-10T11:57:34.500Z,9.50
2022-11-10T12:00:08.545Z,8.30
2022-11-10T12:02:52.697Z,8.70
2022-11-10T12:05:31.196Z,12.10
2022-11-10T12:08:02.574Z,8.10
2022-11-10T12:10:39.228Z,8.30
2022-11-10T12:13:18.026Z,6.70
2022-11-10T12:15:49.552Z,6.30
2022-11-10T12:18:25.114Z,6.40
2022-11-10T12:20:59.166Z,7.10
2022-11-10T12:23:30.365Z,7.40
2022-11-10T12:26:01.446Z,8.40
2022-11-10T12:28:28.185Z,7.30
2022-11-10T12:31:01.449Z,6.90
2022-11-10T12:33:36.655Z,8.30
2022-11-10T12:36:02.438Z,6.90
2022-11-10T12:38:37.389Z,8.20
2022-11-10T12:41:07.206Z,8.20
2022-11-10T12:43:35.436Z,8.00
2022-11-10T12:46:04.333Z,7.90
2022-11-10T12:48:34.213Z,8.10
2022-11-10T12:51:04.689Z,8.60
2022-11-10T12:53:31.073Z,7.40
2022-11-10T12:55:58.222Z,7.20
2022-11-10T12:58:21.504Z,8.60
2022-11-10T13:00:54.855Z,9.60
2022-11-10T13:03:28.832Z,8.00
2022-11-10T13:05:58.244Z,9.10
2022-11-10T13:08:46.353Z,7.90
2022-11-10T13:11:23.886Z,10.90
2022-11-10T13:13:54.257Z,11.20
2022-11-10T13:16:49.721Z,7.90
2022-11-10T13:19:33.582Z,8.70
2022-11-10T13:22:11.435Z,9.30
2022-11-10T13:24:35.986Z,8.70
2022-11-10T13:27:00.375Z,9.20
2022-11-10T13:29:31.045Z,9.50
2022-11-10T13:31:56.008Z,10.00
2022-11-10T13:34:30.834Z,10.80
2022-11-10T13:36:54.362Z,9.80
2022-11-10T13:39:28.685Z,10.30
2022-11-10T13:41:54.271Z,9.50
2022-11-10T13:44:25.498Z,8.40
2022-11-10T13:47:03.401Z,8.70
2022-11-10T13:49:45.425Z,8.80
2022-11-10T13:52:15.024Z,10.60
2022-11-10T13:54:58.709Z,8.90
2022-11-10T13:57:30.321Z,8.40
2022-11-10T13:59:56.414Z,9.10
2022-11-10T14:02:50.041Z,10.20
2022-11-10T14:06:02.216Z,10.40
2022-11-10T14:08:34.604Z,8.00
2022-11-10T14:11:02.600Z,8.50
2022-11-10T14:13:32.085Z,9.20
2022-11-10T14:15:55.716Z,8.80
2022-11-10T14:18:23.469Z,10.30
2022-11-10T14:20:52.532Z,9.10
2022-11-10T14:23:21.545Z,10.00
2022-11-10T14:25:46.795Z,9.30
2022-11-10T14:28:26.374Z,11.80
2022-11-10T14:30:53.980Z,8.90
2022-11-10T14:33:17.541Z,10.20
2022-11-10T14:35:48.112Z,9.80
2022-11-10T14:38:21.019Z,8.90
2022-11-10T14:40:45.033Z,9.00
2022-11-10T14:43:26.958Z,8.50
2022-11-10T14:45:53.546Z,9.50
2022-11-10T14:48:21.730Z,9.40
2022-11-10T14:50:45.172Z,9.00
2022-11-10T14:53:19.173Z,9.60
2022-11-10T14:55:47.632Z,10.00
2022-11-10T14:58:17.436Z,8.80
2022-11-10T15:00:43.674Z,12.00
2022-11-10T15:03:08.827Z,10.40
2022-11-10T15:05:33.404Z,10.50
2022-11-10T15:07:58.347Z,11.70
2022-11-10T15:10:24.037Z,11.70
2022-11-10T15:12:59.915Z,10.20
2022-11-10T15:15:24.301Z,12.80
2022-11-10T15:17:49.975Z,11.60
2022-11-10T15:20:37.215Z,12.00
2022-11-10T15:23:02.144Z,12.30
2022-11-10T15:25:31.904Z,9.30
2022-11-10T15:28:01.236Z,10.80
2022-11-10T15:30:25.340Z,10.50
2022-11-10T15:32:49.135Z,10.90
2022-11-10T15:35:27.825Z,8.50
2022-11-10T15:38:02.243Z,10.60
2022-11-10T15:40:35.117Z,12.10
2022-11-10T15:43:14.205Z,10.80
2022-11-10T15:45:37.344Z,10.30
2022-11-10T15:48:01.265Z,8.30
2022-11-10T15:50:24.547Z,11.10
2022-11-10T15:52:47.753Z,9.10
2022-11-10T15:55:22.273Z,7.70
2022-11-10T15:57:45.390Z,10.40
2022-11-10T16:00:13.773Z,10.00
2022-11-10T16:02:43.193Z,8.40
2022-11-10T16:05:12.112Z,9.30
2022-11-10T16:07:35.399Z,9.50
2022-11-10T16:09:59.298Z,10.10
2022-11-10T16:12:24.335Z,10.80
2022-11-10T16:14:49.612Z,10.60
2022-11-10T16:17:13.482Z,11.10
2022-11-10T16:19:36.680Z,8.90
2022-11-10T16:22:02.701Z,10.30
2022-11-10T16:24:25.806Z,9.20
2022-11-10T16:26:49.230Z,9.00
2022-11-10T16:29:15.023Z,10.00
2022-11-10T16:31:39.654Z,8.80
2022-11-10T16:34:03.031Z,10.90
2022-11-10T16:36:29.310Z,10.60
2022-11-10T16:38:52.984Z,12.00
2022-11-10T16:41:17.433Z,12.60
2022-11-10T16:43:40.771Z,12.60
2022-11-10T16:46:13.930Z,10.00
2022-11-10T16:48:37.795Z,10.40
2022-11-10T16:51:02.382Z,11.90
2022-11-10T16:53:27.821Z,11.00
2022-11-10T16:55:51.262Z,13.60
2022-11-10T16:58:14.643Z,17.10
2022-11-10T17:00:39.540Z,12.00
2022-11-10T17:03:06.589Z,12.00
2022-11-10T17:05:30.623Z,13.10
2022-11-10T17:07:54.315Z,14.50
2022-11-10T17:10:20.143Z,17.00
2022-11-10T17:12:43.667Z,14.90
2022-11-10T17:15:10.109Z,14.90
2022-11-10T17:17:35.007Z,11.40
2022-11-10T17:19:58.974Z,12.10
2022-11-10T17:22:24.417Z,11.50
2022-11-10T17:24:51.401Z,13.00
2022-11-10T17:27:15.092Z,10.20
2022-11-10T17:29:38.514Z,11.30
2022-11-10T17:32:01.806Z,11.70
2022-11-10T17:34:26.922Z,12.20
2022-11-10T17:36:52.611Z,10.50
2022-11-10T17:39:20.255Z,11.50
2022-11-10T17:41:45.093Z,15.40
2022-11-10T17:44:14.806Z,14.10
2022-11-10T17:46:38.481Z,13.90
2022-11-10T17:49:03.176Z,13.20
2022-11-10T17:51:27.788Z,11.70
2022-11-10T17:53:51.551Z,14.20
2022-11-10T17:56:14.865Z,14.30
2022-11-10T17:58:38.129Z,13.60
2022-11-10T18:01:02.546Z,14.10
2022-11-10T18:03:29.608Z,13.10
2022-11-10T18:05:54.502Z,15.30
2022-11-10T18:08:19.750Z,13.80
2022-11-10T18:10:47.960Z,13.90
2022-11-10T18:13:12.295Z,14.10
2022-11-10T18:15:36.935Z,14.80
2022-11-10T18:18:02.135Z,14.70
2022-11-10T18:20:26.795Z,12.40
2022-11-10T18:22:51.960Z,13.50
2022-11-10T18:25:16.455Z,14.10
2022-11-10T18:27:43.808Z,14.60
2022-11-10T18:30:09.869Z,16.20
2022-11-10T18:32:33.777Z,15.70
2022-11-10T18:35:00.666Z,15.50
2022-11-10T18:37:24.847Z,14.50
2022-11-10T18:39:52.568Z,12.90
2022-11-10T18:42:16.113Z,15.60
2022-11-10T18:44:40.838Z,13.60
2022-11-10T18:47:06.958Z,16.40
2022-11-10T18:49:34.466Z,15.50
2022-11-10T18:52:10.313Z,17.10
2022-11-10T18:54:35.278Z,15.90
2022-11-10T18:57:00.249Z,15.60
2022-11-10T18:59:24.203Z,14.80
2022-11-10T19:01:48.696Z,14.00
2022-11-10T19:04:13.911Z,13.40
2022-11-10T19:06:38.255Z,13.00
2022-11-10T19:09:07.261Z,13.50
2022-11-10T19:11:33.381Z,11.30
2022-11-10T19:14:01.921Z,13.70
2022-11-10T19:16:26.834Z,14.80
2022-11-10T19:18:51.286Z,16.20
2022-11-10T19:21:18.344Z,16.10
2022-11-10T19:23:42.804Z,13.60
2022-11-10T19:26:13.381Z,16.30
2022-11-10T19:28:40.793Z,15.20
2022-11-10T19:31:07.530Z,14.00
2022-11-10T19:33:32.908Z,14.50
2022-11-10T19:35:57.216Z,17.40
2022-11-10T19:38:22.257Z,14.60
2022-11-10T19:40:48.149Z,17.90
2022-11-10T19:43:15.322Z,15.10
2022-11-10T19:45:40.031Z,19.50
2022-11-10T19:48:05.632Z,13.90
2022-11-10T19:50:31.815Z,18.90
2022-11-10T19:52:56.318Z,16.90
2022-11-10T19:55:22.210Z,17.20
2022-11-10T19:57:46.236Z,14.30
2022-11-10T20:00:15.162Z,20.00
2022-11-10T20:02:45.228Z,16.70
2022-11-10T20:05:13.344Z,15.30
2022-11-10T20:07:37.748Z,16.50
2022-11-10T20:10:10.432Z,13.90
2022-11-10T20:12:37.285Z,15.90
2022-11-10T20:15:04.662Z,14.90
2022-11-10T20:17:34.522Z,15.70
2022-11-10T20:19:57.994Z,14.80
2022-11-10T20:22:22.620Z,14.50
2022-11-10T20:24:50.951Z,15.70
2022-11-10T20:27:20.993Z,18.60
2022-11-10T20:29:47.776Z,14.70
2022-11-10T20:32:14.018Z,14.00
2022-11-10T20:34:41.141Z,18.00
2022-11-10T20:37:05.470Z,15.80
2022-11-10T20:39:29.413Z,17.20
2022-11-10T20:41:54.138Z,14.80
2022-11-10T20:44:20.418Z,16.70
2022-11-10T20:47:00.232Z,17.70
2022-11-10T20:49:26.306Z,17.60
2022-11-10T20:51:53.581Z,14.10
2022-11-10T20:54:17.265Z,15.70
2022-11-10T20:56:43.616Z,13.80
2022-11-10T20:59:15.118Z,18.30
2022-11-10T21:01:38.890Z,20.00
2022-11-10T21:04:02.668Z,19.50
2022-11-10T21:06:27.553Z,15.70
2022-11-10T21:08:50.918Z,14.10
2022-11-10T21:11:14.449Z,17.40
2022-11-10T21:13:38.422Z,12.90
2022-11-10T21:16:03.731Z,14.60
2022-11-10T21:18:29.113Z,15.00
2022-11-10T21:20:55.060Z,15.80
2022-11-10T21:23:18.151Z,14.10
2022-11-10T21:25:41.597Z,14.00
2022-11-10T21:28:05.569Z,13.90
2022-11-10T21:30:31.325Z,14.10
2022-11-10T21:32:55.347Z,13.90
2022-11-10T21:35:18.599Z,15.10
2022-11-10T21:37:42.360Z,13.90
2022-11-10T21:40:06.424Z,13.80
2022-11-10T21:42:35.191Z,15.20
2022-11-10T21:44:58.901Z,13.80
2022-11-10T21:47:21.991Z,14.60
2022-11-10T21:49:44.914Z,14.80
2022-11-10T21:52:08.277Z,11.40
2022-11-10T21:54:31.682Z,12.20
2022-11-10T21:56:55.252Z,14.30
2022-11-10T21:59:21.235Z,12.60
2022-11-10T22:01:44.581Z,14.30
2022-11-10T22:04:07.998Z,13.20
2022-11-10T22:06:31.494Z,15.30
2022-11-10T22:08:54.803Z,12.60
2022-11-10T22:11:20.208Z,14.20
2022-11-10T22:13:43.485Z,12.70
2022-11-10T22:16:22.174Z,15.60
2022-11-10T22:18:45.559Z,13.10
2022-11-10T22:21:09.747Z,12.10
2022-11-10T22:23:33.357Z,12.70
2022-11-10T22:25:59.663Z,12.30
2022-11-10T22:28:22.971Z,13.70
2022-11-10T22:30:46.792Z,12.30
2022-11-10T22:33:09.872Z,14.30
2022-11-10T22:35:33.041Z,11.50
2022-11-10T22:37:56.111Z,11.90
2022-11-10T22:40:19.351Z,13.20
2022-11-10T22:42:42.741Z,12.90
2022-11-10T22:45:07.452Z,12.90
2022-11-10T22:47:30.688Z,13.90
2022-11-10T22:49:53.977Z,13.30
2022-11-10T22:52:17.306Z,12.90
2022-11-10T22:54:43.321Z,11.80
2022-11-10T22:57:06.595Z,12.50
2022-11-10T22:59:29.905Z,13.20
2022-11-10T23:01:53.285Z,11.80
2022-11-10T23:04:16.469Z,11.40
2022-11-10T23:06:40.054Z,11.30
2022-11-10T23:09:03.952Z,11.90
2022-11-10T23:11:29.134Z,12.80
2022-11-10T23:13:52.706Z,11.40
2022-11-10T23:16:17.769Z,11.50
2022-11-10T23:18:43.334Z,11.00
2022-11-10T23:21:11.129Z,10.00
2022-11-10T23:23:36.012Z,11.90
2022-11-10T23:26:01.063Z,12.20
2022-11-10T23:28:24.356Z,11.50
2022-11-10T23:30:50.322Z,12.40
2022-11-10T23:33:13.529Z,13.40
2022-11-10T23:35:39.663Z,11.20
2022-11-10T23:38:02.649Z,11.10
2022-11-10T23:40:25.866Z,12.20
2022-11-10T23:42:49.093Z,11.50
2022-11-10T23:45:12.839Z,12.30
2022-11-10T23:47:35.920Z,11.60
2022-11-10T23:49:59.392Z,11.70
2022-11-10T23:52:22.447Z,13.70
2022-11-10T23:54:45.416Z,16.20
2022-11-10T23:57:09.202Z,14.60
2022-11-10T23:59:32.585Z,13.50
